Time;durP1;ratioP1;P1;durP2;ratioP2;P2;SDS_P1;SDS_P2;PMS_P1;PMS_P2;Temp;Humidity;BMP_temperature;BMP_pressure;BME280_temperature;BME280_humidity;BME280_pressure;Samples;Min_cycle;Max_cycle;Signal;HPM_P1;HPM_P2
2022/05/30 00:00:32;;;;;;;12.48;2.65;;;8.00;99.90;;;;;;5111866;28;20048;-79
2022/05/30 00:02:58;;;;;;;16.20;2.40;;;8.00;99.90;;;;;;5099255;27;20044;-79
2022/05/30 00:05:25;;;;;;;9.57;2.38;;;8.00;99.90;;;;;;5117256;27;20070;-78
2022/05/30 00:07:50;;;;;;;14.82;2.60;;;8.10;99.90;;;;;;5097859;28;20059;-79
2022/05/30 00:10:19;;;;;;;10.32;2.33;;;8.00;99.90;;;;;;5078965;27;20036;-79
2022/05/30 00:12:46;;;;;;;9.18;2.05;;;7.90;99.90;;;;;;5082959;28;20136;-79
2022/05/30 00:15:14;;;;;;;13.35;2.40;;;7.90;99.90;;;;;;5081431;28;20048;-80
2022/05/30 00:21:49;;;;;;;15.95;2.17;;;7.90;99.90;;;;;;5104991;27;20039;-77
2022/05/30 00:24:14;;;;;;;12.45;2.30;;;7.80;99.90;;;;;;5094600;28;20048;-80
2022/05/30 00:26:40;;;;;;;9.32;1.98;;;7.80;99.90;;;;;;5080292;28;20051;-79
2022/05/30 00:29:07;;;;;;;9.50;2.08;;;8.00;99.90;;;;;;5084674;28;20040;-79
2022/05/30 00:31:35;;;;;;;15.15;2.15;;;7.60;99.90;;;;;;5093071;27;20417;-79
2022/05/30 00:34:01;;;;;;;10.30;2.22;;;7.70;99.90;;;;;;5086913;28;20139;-79
2022/05/30 00:36:30;;;;;;;5.32;1.65;;;7.60;99.90;;;;;;5092797;28;20353;-79
2022/05/30 00:38:56;;;;;;;9.00;2.40;;;7.70;99.90;;;;;;5071439;28;20032;-80
2022/05/30 00:41:22;;;;;;;15.10;2.00;;;7.60;99.90;;;;;;5077752;28;20040;-80
2022/05/30 00:43:48;;;;;;;6.82;2.08;;;7.60;99.90;;;;;;5085330;27;21600;-79
2022/05/30 00:46:18;;;;;;;8.15;1.90;;;7.60;99.90;;;;;;5096766;28;20036;-80
2022/05/30 00:48:50;;;;;;;7.75;1.83;;;7.50;99.90;;;;;;5068590;28;20062;-80
2022/05/30 00:51:28;;;;;;;6.93;1.70;;;7.50;99.90;;;;;;5064539;28;20168;-80
2022/05/30 00:53:55;;;;;;;9.93;1.80;;;7.50;99.90;;;;;;5065488;27;20046;-80
2022/05/30 00:56:25;;;;;;;8.45;1.52;;;7.50;99.90;;;;;;5090770;27;22711;-80
2022/05/30 00:58:51;;;;;;;7.38;1.77;;;7.40;99.90;;;;;;5070243;27;20436;-80
2022/05/30 01:01:19;;;;;;;7.47;1.60;;;7.40;99.90;;;;;;5086153;28;20036;-81
2022/05/30 01:06:44;;;;;;;5.80;1.48;;;7.50;99.90;;;;;;5081387;27;20043;-79
2022/05/30 01:09:16;;;;;;;6.57;1.60;;;7.50;99.90;;;;;;5099078;27;20044;-78
2022/05/30 01:11:59;;;;;;;7.18;1.40;;;7.60;99.90;;;;;;5087598;28;20069;-79
2022/05/30 01:14:28;;;;;;;7.10;1.50;;;7.60;99.90;;;;;;5090495;28;20719;-80
2022/05/30 01:16:55;;;;;;;6.85;1.33;;;7.60;99.90;;;;;;5071586;27;20093;-80
2022/05/30 01:19:55;;;;;;;3.90;1.30;;;7.90;99.90;;;;;;5087594;27;20554;-80
2022/05/30 01:22:27;;;;;;;4.93;1.17;;;7.60;99.90;;;;;;4984822;28;20041;-79
2022/05/30 01:25:27;;;;;;;4.22;1.60;;;7.50;99.90;;;;;;5004219;28;20052;-79
2022/05/30 01:28:25;;;;;;;5.78;1.42;;;7.50;99.90;;;;;;4986359;28;20404;-79
2022/05/30 01:30:50;;;;;;;3.60;1.33;;;7.40;99.90;;;;;;5002655;28;20133;-80
2022/05/30 01:33:16;;;;;;;3.65;1.40;;;7.50;99.90;;;;;;5005753;28;20065;-81
2022/05/30 01:35:44;;;;;;;6.60;1.42;;;7.40;99.90;;;;;;4985048;28;20374;-80
2022/05/30 01:38:09;;;;;;;7.03;1.85;;;7.40;99.90;;;;;;4987344;28;20096;-80
2022/05/30 01:40:38;;;;;;;5.05;1.40;;;7.30;99.90;;;;;;4990168;28;20041;-80
2022/05/30 01:43:04;;;;;;;6.40;1.30;;;7.50;99.90;;;;;;4987615;28;20132;-81
2022/05/30 01:45:29;;;;;;;4.18;1.30;;;7.30;99.90;;;;;;4995385;28;20136;-79
2022/05/30 01:48:13;;;;;;;4.40;1.38;;;7.30;99.90;;;;;;5011620;28;20045;-80
2022/05/30 01:50:40;;;;;;;5.85;1.70;;;7.20;99.90;;;;;;4997175;28;20129;-76
2022/05/30 01:53:05;;;;;;;3.60;1.40;;;7.20;99.90;;;;;;5000056;28;20054;-77
2022/05/30 01:55:31;;;;;;;6.47;1.45;;;7.10;99.90;;;;;;5004355;28;20100;-80
2022/05/30 01:57:57;;;;;;;4.53;1.38;;;7.20;99.90;;;;;;4984991;28;20522;-79
2022/05/30 02:00:22;;;;;;;7.95;1.38;;;7.10;99.90;;;;;;5073995;27;20175;-81
2022/05/30 02:02:49;;;;;;;4.65;1.30;;;7.10;99.90;;;;;;5069561;27;20376;-79
2022/05/30 02:05:14;;;;;;;4.47;1.30;;;7.10;99.90;;;;;;5078457;27;20936;-78
2022/05/30 02:07:40;;;;;;;6.90;1.60;;;7.00;99.90;;;;;;5081272;28;20050;-79
2022/05/30 02:10:06;;;;;;;4.88;1.55;;;7.00;99.90;;;;;;5081155;27;20846;-80
2022/05/30 02:12:32;;;;;;;4.10;1.50;;;7.00;99.90;;;;;;5088255;27;20043;-81
2022/05/30 02:14:58;;;;;;;2.97;1.25;;;7.20;99.90;;;;;;5071056;27;20040;-80
2022/05/30 02:17:24;;;;;;;5.75;1.45;;;7.00;99.90;;;;;;5079317;27;20050;-81
2022/05/30 02:19:50;;;;;;;3.45;1.50;;;7.10;99.90;;;;;;5078750;27;20031;-81
2022/05/30 02:22:19;;;;;;;6.95;1.52;;;7.00;99.90;;;;;;5070448;27;20035;-80
2022/05/30 02:24:45;;;;;;;7.13;1.85;;;7.00;99.90;;;;;;5119527;27;20347;-80
2022/05/30 02:27:12;;;;;;;4.40;1.50;;;7.00;99.90;;;;;;5112524;27;20115;-80
2022/05/30 02:29:39;;;;;;;6.88;1.45;;;7.60;99.90;;;;;;5065218;28;20031;-81
2022/05/30 02:38:36;;;;;;;6.45;1.55;;;6.90;99.90;;;;;;5095082;28;20036;-80
2022/05/30 02:41:01;;;;;;;3.92;1.33;;;6.90;99.90;;;;;;5074752;28;20053;-78
2022/05/30 02:43:27;;;;;;;5.32;1.45;;;6.90;99.90;;;;;;5088680;28;20367;-81
2022/05/30 02:45:52;;;;;;;3.75;1.35;;;6.90;99.90;;;;;;5066017;28;20525;-80
2022/05/30 02:48:21;;;;;;;4.88;1.40;;;6.90;99.90;;;;;;5071330;28;20094;-80
2022/05/30 02:50:46;;;;;;;16.85;1.55;;;7.00;99.90;;;;;;5104459;27;20032;-80
2022/05/30 02:53:15;;;;;;;4.15;1.40;;;7.40;99.90;;;;;;5072560;28;20119;-80
2022/05/30 02:55:41;;;;;;;9.27;1.60;;;7.10;99.90;;;;;;5073444;28;20036;-80
2022/05/30 02:58:06;;;;;;;5.28;1.40;;;7.10;99.90;;;;;;5088453;27;20070;-80
2022/05/30 03:00:32;;;;;;;4.90;1.58;;;7.30;99.90;;;;;;5072899;27;20346;-80
2022/05/30 03:02:58;;;;;;;5.82;1.63;;;7.20;99.90;;;;;;5083931;28;20047;-78
2022/05/30 03:05:24;;;;;;;5.78;1.70;;;7.30;99.90;;;;;;5083852;28;20036;-80
2022/05/30 03:07:50;;;;;;;5.55;1.50;;;7.30;99.90;;;;;;5078884;28;20032;-80
2022/05/30 03:10:16;;;;;;;4.70;1.40;;;7.60;99.90;;;;;;5076140;28;20487;-80
2022/05/30 03:12:41;;;;;;;4.75;1.40;;;7.40;99.90;;;;;;5069946;27;20073;-80
2022/05/30 03:15:08;;;;;;;5.75;1.55;;;7.40;99.90;;;;;;5082475;27;20053;-81
2022/05/30 03:17:34;;;;;;;9.65;1.38;;;7.40;99.90;;;;;;5074444;28;20454;-79
2022/05/30 03:20:00;;;;;;;7.20;1.52;;;7.50;99.90;;;;;;5091716;28;20028;-78
2022/05/30 03:22:26;;;;;;;8.10;1.85;;;7.50;99.90;;;;;;5078742;27;20047;-77
2022/05/30 03:24:52;;;;;;;4.32;1.40;;;7.50;99.90;;;;;;5087918;28;20039;-80
2022/05/30 03:27:18;;;;;;;5.95;1.70;;;7.60;99.90;;;;;;5064754;28;20496;-80
2022/05/30 03:29:44;;;;;;;6.43;1.83;;;7.60;99.90;;;;;;5079878;28;20122;-81
2022/05/30 03:32:10;;;;;;;8.20;1.90;;;7.70;99.90;;;;;;5078472;28;20036;-81
2022/05/30 03:34:35;;;;;;;7.32;1.80;;;7.70;99.90;;;;;;5083030;28;20069;-80
2022/05/30 03:37:01;;;;;;;4.75;1.60;;;8.30;99.90;;;;;;5104438;28;20047;-80
2022/05/30 03:39:27;;;;;;;8.43;1.63;;;7.80;99.90;;;;;;5092713;28;20462;-80
2022/05/30 03:41:52;;;;;;;5.18;1.70;;;7.80;99.90;;;;;;5074543;28;20035;-80
2022/05/30 03:44:18;;;;;;;6.55;1.80;;;7.80;99.90;;;;;;5080281;28;20540;-79
2022/05/30 03:46:44;;;;;;;4.32;1.65;;;7.90;99.90;;;;;;5079602;28;20084;-80
2022/05/30 03:49:10;;;;;;;7.00;2.08;;;7.90;99.90;;;;;;5089490;28;20035;-80
2022/05/30 03:51:38;;;;;;;5.50;1.67;;;8.00;99.90;;;;;;5086275;28;20222;-80
2022/05/30 03:54:04;;;;;;;8.45;2.10;;;8.00;99.90;;;;;;5082310;28;20122;-81
2022/05/30 03:56:30;;;;;;;9.73;2.22;;;7.90;99.90;;;;;;5075020;28;20589;-81
2022/05/30 03:58:55;;;;;;;8.32;1.77;;;8.10;99.90;;;;;;5078880;28;20952;-79
2022/05/30 04:01:21;;;;;;;7.05;1.95;;;8.00;99.90;;;;;;5074362;28;20097;-79
2022/05/30 04:03:47;;;;;;;5.68;1.98;;;8.10;99.90;;;;;;5066676;28;20054;-81
2022/05/30 04:06:13;;;;;;;4.88;1.92;;;8.20;99.90;;;;;;5085681;28;20043;-80
2022/05/30 04:08:39;;;;;;;6.38;1.65;;;8.10;99.90;;;;;;5094872;28;21582;-80
2022/05/30 04:11:05;;;;;;;4.68;1.70;;;8.60;99.90;;;;;;5071193;28;20040;-80
2022/05/30 04:13:30;;;;;;;9.25;2.10;;;8.30;99.90;;;;;;5060790;28;20475;-81
2022/05/30 04:15:56;;;;;;;6.45;2.20;;;8.20;99.90;;;;;;5072049;28;20063;-81
2022/05/30 04:18:22;;;;;;;7.90;1.90;;;8.20;99.90;;;;;;5062853;28;20161;-80
2022/05/30 04:20:48;;;;;;;5.90;2.10;;;8.30;99.90;;;;;;5060193;28;20140;-80
2022/05/30 04:23:14;;;;;;;6.82;2.05;;;8.40;99.90;;;;;;5060443;28;21956;-80
2022/05/30 04:25:40;;;;;;;7.03;2.10;;;8.40;99.90;;;;;;5083850;28;20035;-79
2022/05/30 04:28:06;;;;;;;8.60;2.00;;;8.40;99.90;;;;;;5090858;28;20024;-81
2022/05/30 04:30:31;;;;;;;4.82;2.20;;;8.40;99.90;;;;;;5073985;28;20115;-81
2022/05/30 04:32:57;;;;;;;3.95;1.70;;;8.80;99.90;;;;;;5063774;28;20059;-81
2022/05/30 04:35:26;;;;;;;8.90;2.20;;;8.80;99.90;;;;;;5075970;28;20427;-80
2022/05/30 04:37:52;;;;;;;3.72;1.85;;;8.80;99.90;;;;;;5064050;28;20036;-79
2022/05/30 04:40:19;;;;;;;6.53;1.90;;;8.50;99.90;;;;;;5081062;28;20123;-79
2022/05/30 04:42:48;;;;;;;6.97;2.00;;;8.50;99.90;;;;;;5089064;28;20036;-81
2022/05/30 04:45:14;;;;;;;5.60;1.75;;;8.40;99.90;;;;;;5093458;28;20074;-81
2022/05/30 04:51:23;;;;;;;4.00;1.67;;;8.60;99.90;;;;;;5090377;28;20030;-77
2022/05/30 04:53:49;;;;;;;6.72;2.08;;;8.70;99.90;;;;;;5100604;28;20051;-77
2022/05/30 04:56:17;;;;;;;12.25;1.98;;;8.70;99.90;;;;;;5071347;28;20147;-80
2022/05/30 04:58:44;;;;;;;4.28;1.73;;;8.70;99.90;;;;;;5089170;28;20040;-81
2022/05/30 05:01:11;;;;;;;3.78;1.80;;;8.80;99.90;;;;;;5072779;28;20123;-81
2022/05/30 05:03:38;;;;;;;5.32;2.03;;;8.80;99.90;;;;;;5070638;28;20041;-80
2022/05/30 05:06:05;;;;;;;7.47;2.17;;;9.00;99.90;;;;;;5076917;28;20036;-80
2022/05/30 05:08:55;;;;;;;4.40;1.80;;;9.00;99.90;;;;;;5075904;28;20120;-80
2022/05/30 05:11:27;;;;;;;6.18;2.25;;;9.10;99.90;;;;;;5077275;28;20033;-80
2022/05/30 05:13:54;;;;;;;6.93;1.85;;;9.00;99.90;;;;;;5072864;28;20133;-81
2022/05/30 05:16:24;;;;;;;5.05;1.83;;;9.20;99.90;;;;;;5070095;28;20137;-78
2022/05/30 05:18:50;;;;;;;7.45;1.90;;;9.50;99.90;;;;;;5065581;28;22056;-80
2022/05/30 05:21:21;;;;;;;6.97;1.98;;;9.60;99.90;;;;;;5062200;28;20036;-81
2022/05/30 05:23:50;;;;;;;7.15;1.90;;;9.40;99.90;;;;;;5058568;28;20120;-81
2022/05/30 05:26:17;;;;;;;7.70;2.10;;;9.20;99.90;;;;;;5061710;28;20044;-80
2022/05/30 05:28:43;;;;;;;8.10;2.05;;;9.30;99.90;;;;;;5066031;28;20036;-81
2022/05/30 05:31:19;;;;;;;3.75;1.70;;;9.30;99.90;;;;;;5054674;28;20037;-80
2022/05/30 05:33:45;;;;;;;8.25;2.00;;;9.50;99.90;;;;;;5059494;28;20412;-82
2022/05/30 05:36:11;;;;;;;5.88;1.80;;;9.60;99.90;;;;;;5060098;28;20032;-80
2022/05/30 05:38:36;;;;;;;5.03;1.85;;;9.70;99.90;;;;;;5056219;28;20054;-78
2022/05/30 05:41:07;;;;;;;7.40;1.92;;;9.90;99.90;;;;;;5074936;28;20072;-79
2022/05/30 05:43:33;;;;;;;6.63;1.98;;;9.50;99.90;;;;;;5049444;28;20048;-79
2022/05/30 05:45:59;;;;;;;6.85;2.10;;;9.60;99.90;;;;;;5073372;28;20164;-81
2022/05/30 05:48:24;;;;;;;5.93;1.80;;;9.60;99.90;;;;;;5073664;28;20032;-80
2022/05/30 05:50:50;;;;;;;4.30;1.52;;;9.70;99.90;;;;;;5047279;28;20037;-77
2022/05/30 05:53:16;;;;;;;5.97;1.60;;;9.90;99.90;;;;;;5065594;28;20064;-79
2022/05/30 05:55:41;;;;;;;5.85;1.30;;;10.40;99.90;;;;;;5045723;28;20054;-79
2022/05/30 05:58:07;;;;;;;3.90;1.33;;;10.90;99.90;;;;;;5055712;28;20055;-77
2022/05/30 06:00:33;;;;;;;6.68;1.40;;;10.90;99.90;;;;;;5061380;28;20040;-78
2022/05/30 06:02:59;;;;;;;5.60;1.30;;;10.90;99.90;;;;;;5056635;28;20044;-78
2022/05/30 06:05:26;;;;;;;5.78;1.30;;;11.50;99.90;;;;;;5060832;28;20048;-79
2022/05/30 06:07:52;;;;;;;3.40;1.20;;;11.40;99.90;;;;;;5046357;28;20048;-78
2022/05/30 06:10:18;;;;;;;8.15;1.40;;;11.90;99.90;;;;;;5043275;28;20048;-76
2022/05/30 06:12:46;;;;;;;3.88;0.85;;;12.40;99.90;;;;;;5054611;28;20538;-80
2022/05/30 06:15:16;;;;;;;3.22;0.90;;;12.40;99.90;;;;;;5061582;28;20076;-78
2022/05/30 06:21:51;;;;;;;;;;;12.80;99.90;;;;;;5103579;27;20038;-75
2022/05/30 06:24:17;;;;;;;4.55;1.23;;;12.80;99.90;;;;;;5099174;27;19994;-75
2022/05/30 06:26:44;;;;;;;3.20;0.85;;;13.00;99.90;;;;;;5091023;28;20054;-76
2022/05/30 06:29:14;;;;;;;3.03;0.85;;;13.10;99.90;;;;;;5079103;27;20063;-79
2022/05/30 06:31:40;;;;;;;8.68;0.80;;;13.00;99.90;;;;;;5073288;28;20394;-77
2022/05/30 06:34:07;;;;;;;2.95;0.88;;;13.30;99.90;;;;;;5077922;28;20616;-78
2022/05/30 06:36:34;;;;;;;10.00;0.88;;;13.00;99.90;;;;;;5051121;28;20073;-77
2022/05/30 06:39:01;;;;;;;5.15;0.80;;;13.30;99.90;;;;;;5091126;27;20120;-77
2022/05/30 06:41:33;;;;;;;3.10;0.90;;;13.40;99.90;;;;;;5078844;27;20103;-77
2022/05/30 06:44:04;;;;;;;1.92;0.73;;;13.00;99.90;;;;;;5086094;27;20410;-79
2022/05/30 06:46:31;;;;;;;3.05;0.90;;;12.80;99.90;;;;;;5064960;28;20498;-80
2022/05/30 06:48:58;;;;;;;2.08;0.70;;;12.60;99.90;;;;;;5057923;28;20188;-79
2022/05/30 06:51:27;;;;;;;3.28;0.70;;;12.30;99.90;;;;;;5079169;28;20440;-79
2022/05/30 06:53:54;;;;;;;2.60;0.70;;;12.30;99.90;;;;;;5094986;28;20050;-81
2022/05/30 06:56:21;;;;;;;3.00;0.80;;;12.20;99.90;;;;;;5094335;28;20053;-81
2022/05/30 06:58:50;;;;;;;3.72;1.08;;;12.10;99.90;;;;;;5081669;28;20563;-81
2022/05/30 07:01:17;;;;;;;3.45;1.00;;;11.90;99.90;;;;;;5051934;28;20067;-80
2022/05/30 07:03:45;;;;;;;3.90;1.05;;;11.90;99.90;;;;;;5084415;28;20043;-79
2022/05/30 07:06:14;;;;;;;4.57;0.90;;;11.80;99.90;;;;;;5074001;28;20474;-79
2022/05/30 07:08:41;;;;;;;6.30;1.15;;;11.80;99.90;;;;;;5082947;28;20047;-80
2022/05/30 07:11:07;;;;;;;1.70;0.63;;;11.70;99.90;;;;;;5074261;27;20482;-80
2022/05/30 07:13:35;;;;;;;9.15;1.30;;;11.60;99.90;;;;;;5081928;28;20043;-80
2022/05/30 07:16:02;;;;;;;2.72;1.00;;;11.70;99.90;;;;;;5092084;28;20526;-80
2022/05/30 07:18:29;;;;;;;5.55;1.23;;;11.70;99.90;;;;;;5086879;28;20166;-80
2022/05/30 07:21:00;;;;;;;4.70;1.38;;;11.60;99.90;;;;;;5083254;28;20036;-80
2022/05/30 07:23:27;;;;;;;5.68;1.17;;;11.30;99.90;;;;;;5081614;28;20051;-81
2022/05/30 07:26:00;;;;;;;5.20;1.25;;;11.30;99.90;;;;;;5070224;28;20079;-78
2022/05/30 07:28:31;;;;;;;4.93;1.33;;;11.20;99.90;;;;;;5086476;28;20055;-81
2022/05/30 07:31:08;;;;;;;4.63;0.70;;;11.20;99.90;;;;;;5059783;28;20464;-81
2022/05/30 07:33:35;;;;;;;1.97;0.80;;;11.30;99.90;;;;;;5084256;28;20070;-80
2022/05/30 07:36:05;;;;;;;3.20;0.65;;;11.30;99.90;;;;;;5086312;28;20443;-79
2022/05/30 07:38:30;;;;;;;6.03;1.00;;;11.40;99.90;;;;;;5075649;28;20036;-79
2022/05/30 07:40:56;;;;;;;2.88;0.88;;;11.50;99.90;;;;;;5085080;28;20104;-81
2022/05/30 07:43:22;;;;;;;2.05;0.80;;;11.60;99.90;;;;;;5104004;28;20052;-77
2022/05/30 07:45:47;;;;;;;2.55;1.05;;;12.00;99.90;;;;;;5084257;28;20079;-77
2022/05/30 07:48:13;;;;;;;7.45;1.20;;;12.00;99.90;;;;;;5081741;28;20097;-81
2022/05/30 07:50:39;;;;;;;3.05;0.88;;;12.40;99.90;;;;;;5089841;28;20048;-80
2022/05/30 07:53:05;;;;;;;1.60;0.80;;;12.50;99.90;;;;;;5099738;28;20434;-79
2022/05/30 07:55:32;;;;;;;2.45;1.02;;;12.80;99.90;;;;;;5085927;28;20218;-81
2022/05/30 07:58:04;;;;;;;5.32;0.95;;;13.10;99.90;;;;;;5077526;28;20047;-79
2022/05/30 08:00:32;;;;;;;2.70;1.02;;;13.20;99.90;;;;;;5076274;28;20051;-81
2022/05/30 08:02:58;;;;;;;4.28;1.05;;;13.30;99.90;;;;;;5078449;28;20057;-82
2022/05/30 08:05:24;;;;;;;7.28;1.00;;;13.10;99.90;;;;;;5097222;28;20173;-82
2022/05/30 08:07:52;;;;;;;3.25;1.20;;;13.10;99.90;;;;;;5098957;28;20135;-82
2022/05/30 08:10:19;;;;;;;5.32;0.80;;;12.90;99.90;;;;;;5080315;28;20037;-81
2022/05/30 08:12:45;;;;;;;2.28;0.80;;;13.00;99.90;;;;;;5077798;28;20066;-82
2022/05/30 08:15:12;;;;;;;1.95;0.80;;;12.90;99.90;;;;;;5084854;28;20051;-79
2022/05/30 08:17:38;;;;;;;4.43;0.88;;;13.10;99.90;;;;;;5083128;28;20478;-81
2022/05/30 08:20:06;;;;;;;2.80;0.80;;;13.20;99.90;;;;;;5081471;28;20055;-83
2022/05/30 08:22:34;;;;;;;3.28;0.90;;;13.30;99.90;;;;;;5093037;28;20048;-80
2022/05/30 08:25:03;;;;;;;3.35;0.80;;;13.30;99.90;;;;;;5099654;28;20134;-82
2022/05/30 08:27:29;;;;;;;2.90;0.80;;;13.40;99.90;;;;;;5088906;27;20043;-80
2022/05/30 08:29:56;;;;;;;2.67;0.73;;;13.40;99.90;;;;;;5080348;28;20150;-82
2022/05/30 08:32:23;;;;;;;1.65;0.65;;;13.10;99.90;;;;;;5071842;28;20035;-80
2022/05/30 08:34:49;;;;;;;2.20;0.70;;;12.70;99.90;;;;;;5091195;28;20618;-81
2022/05/30 08:37:14;;;;;;;3.90;0.60;;;12.20;99.90;;;;;;5095695;28;20817;-81
2022/05/30 08:42:28;;;;;;;2.20;0.50;;;12.10;99.90;;;;;;5095033;28;20113;-81
2022/05/30 08:44:55;;;;;;;0.80;0.40;;;11.90;99.90;;;;;;5098058;28;20130;-82
2022/05/30 08:47:52;;;;;;;4.72;0.75;;;12.00;99.90;;;;;;5080180;28;20045;-85
2022/05/30 08:50:44;;;;;;;4.28;0.60;;;11.70;99.90;;;;;;5093860;28;20052;-83
2022/05/30 08:53:41;;;;;;;5.40;0.60;;;11.90;99.90;;;;;;5083351;28;20040;-82
2022/05/30 08:56:22;;;;;;;3.28;0.70;;;11.90;99.90;;;;;;5094792;28;20051;-83
2022/05/30 08:58:58;;;;;;;2.25;0.75;;;12.00;99.90;;;;;;5078918;28;20139;-82
2022/05/30 09:01:36;;;;;;;3.65;0.88;;;11.90;99.90;;;;;;5076132;28;20038;-84
2022/05/30 09:04:39;;;;;;;3.28;0.70;;;11.90;99.90;;;;;;5107797;28;20048;-81
2022/05/30 09:07:10;;;;;;;2.03;0.70;;;11.90;99.90;;;;;;5119785;28;20396;-79
2022/05/30 09:09:58;;;;;;;3.78;0.70;;;12.10;99.90;;;;;;5096396;28;20054;-77
2022/05/30 09:13:07;;;;;;;3.65;0.80;;;12.10;99.90;;;;;;5119131;28;20035;-81
2022/05/30 09:15:40;;;;;;;3.83;0.75;;;12.10;99.90;;;;;;5095162;28;20442;-82
2022/05/30 09:18:15;;;;;;;1.85;0.90;;;12.20;99.90;;;;;;5097568;28;20101;-85
2022/05/30 09:20:41;;;;;;;4.35;0.75;;;12.40;99.90;;;;;;5083561;28;20048;-82
2022/05/30 09:23:09;;;;;;;3.20;0.90;;;12.70;99.90;;;;;;5088611;27;20058;-82
2022/05/30 09:26:01;;;;;;;3.85;0.80;;;12.80;99.90;;;;;;5115832;27;20054;-85
2022/05/30 09:28:33;;;;;;;6.70;0.85;;;12.80;99.90;;;;;;5097692;28;20040;-82
2022/05/30 09:31:20;;;;;;;3.17;0.85;;;13.10;99.90;;;;;;5075441;28;20490;-84
2022/05/30 09:33:59;;;;;;;3.80;0.90;;;13.10;99.90;;;;;;5068921;28;20455;-81
2022/05/30 09:36:33;;;;;;;4.22;0.90;;;13.30;99.90;;;;;;5098065;28;20043;-84
2022/05/30 09:39:04;;;;;;;4.18;0.80;;;13.40;99.90;;;;;;5082088;28;20093;-81
2022/05/30 09:41:48;;;;;;;3.90;0.82;;;13.60;99.90;;;;;;5113620;28;20032;-81
2022/05/30 09:44:16;;;;;;;4.97;0.90;;;13.80;99.90;;;;;;5091136;28;20051;-81
2022/05/30 09:47:03;;;;;;;2.25;0.65;;;13.90;99.90;;;;;;5100772;28;20047;-81
2022/05/30 09:50:22;;;;;;;4.03;0.80;;;13.80;99.90;;;;;;5113670;28;20067;-80
2022/05/30 09:52:48;;;;;;;2.72;1.00;;;14.10;99.90;;;;;;5088790;27;20051;-82
2022/05/30 09:55:33;;;;;;;3.03;0.90;;;14.10;99.90;;;;;;5087893;27;20878;-82
2022/05/30 09:58:00;;;;;;;2.80;0.93;;;14.40;99.90;;;;;;5083183;28;20082;-84
2022/05/30 10:00:49;;;;;;;1.63;0.75;;;14.50;99.90;;;;;;5072495;27;20035;-83
2022/05/30 10:03:34;;;;;;;5.00;1.02;;;14.70;99.90;;;;;;5096369;27;20067;-79
2022/05/30 10:06:15;;;;;;;1.65;0.82;;;14.70;99.90;;;;;;5086012;28;20089;-80
2022/05/30 10:08:41;;;;;;;2.17;0.80;;;14.70;99.90;;;;;;5097941;27;20047;-82
2022/05/30 10:11:07;;;;;;;2.95;0.82;;;15.20;99.90;;;;;;5081219;28;20568;-83
2022/05/30 10:13:42;;;;;;;2.03;0.60;;;14.80;99.90;;;;;;5092972;27;20084;-84
2022/05/30 10:16:14;;;;;;;3.30;0.82;;;15.00;99.90;;;;;;5087708;28;20698;-80
2022/05/30 10:28:53;;;;;;;2.20;0.30;;;13.70;99.90;;;;;;5085185;28;20036;-80
2022/05/30 10:32:07;;;;;;;1.30;0.52;;;13.30;99.90;;;;;;5081051;28;20101;-83
2022/05/30 10:34:39;;;;;;;1.80;0.63;;;13.10;99.90;;;;;;5023629;28;20123;-77
2022/05/30 10:37:42;;;;;;;2.03;0.70;;;12.80;99.90;;;;;;5023941;28;20065;-85
2022/05/30 10:40:45;;;;;;;2.35;0.65;;;12.70;99.90;;;;;;5007934;28;20038;-83
2022/05/30 10:43:24;;;;;;;1.65;0.80;;;12.30;99.90;;;;;;4995483;28;20045;-82
2022/05/30 10:45:57;;;;;;;1.33;0.60;;;12.00;99.90;;;;;;5010983;28;20057;-80
2022/05/30 10:48:33;;;;;;;0.98;0.60;;;12.00;99.90;;;;;;5004998;28;20202;-81
2022/05/30 10:51:15;;;;;;;2.88;0.80;;;11.90;99.90;;;;;;5008791;28;20484;-84
2022/05/30 10:53:57;;;;;;;1.70;0.70;;;12.00;99.90;;;;;;5020932;28;20049;-81
2022/05/30 10:56:36;;;;;;;2.78;0.70;;;12.10;99.90;;;;;;5006289;28;20044;-82
2022/05/30 10:59:26;;;;;;;1.83;0.90;;;12.30;99.90;;;;;;5005959;28;20053;-84
2022/05/30 11:02:04;;;;;;;2.40;1.10;;;12.60;99.90;;;;;;5010309;28;20064;-81
2022/05/30 11:04:33;;;;;;;3.22;1.02;;;12.80;99.90;;;;;;5025071;28;20144;-83
2022/05/30 11:07:27;;;;;;;2.03;0.82;;;13.10;99.90;;;;;;5008662;28;20266;-83
2022/05/30 11:10:26;;;;;;;1.30;0.60;;;13.20;99.90;;;;;;5013252;28;20118;-83
2022/05/30 11:13:15;;;;;;;2.55;0.63;;;13.50;99.90;;;;;;5071722;28;20056;-83
2022/05/30 11:16:07;;;;;;;3.75;0.80;;;13.50;99.90;;;;;;5064351;28;20117;-83
2022/05/30 11:18:49;;;;;;;1.92;0.70;;;13.60;99.90;;;;;;5058001;28;20471;-82
2022/05/30 11:21:39;;;;;;;2.45;0.60;;;13.70;99.90;;;;;;5069094;28;20060;-82
2022/05/30 11:24:06;;;;;;;1.38;0.55;;;13.80;99.90;;;;;;5077341;28;20158;-83
2022/05/30 11:26:50;;;;;;;1.30;0.50;;;13.90;99.90;;;;;;5108247;28;20483;-82
2022/05/30 11:29:53;;;;;;;3.45;0.82;;;14.10;99.90;;;;;;5066206;28;20152;-82
2022/05/30 11:32:58;;;;;;;2.28;0.50;;;14.10;99.90;;;;;;5077507;28;20047;-84
2022/05/30 11:35:34;;;;;;;3.45;0.47;;;14.30;99.90;;;;;;5070950;28;20052;-82
2022/05/30 11:38:38;;;;;;;1.75;0.52;;;14.30;99.90;;;;;;5067021;28;20462;-84
2022/05/30 11:41:14;;;;;;;1.95;0.50;;;14.40;99.90;;;;;;5106523;28;20084;-82
2022/05/30 11:43:39;;;;;;;5.65;1.52;;;14.70;99.90;;;;;;5068720;28;20048;-76
2022/05/30 11:46:31;;;;;;;7.20;0.80;;;14.80;99.90;;;;;;5063395;28;20036;-77
2022/05/30 11:49:14;;;;;;;4.47;0.70;;;15.60;99.90;;;;;;5042488;28;20048;-77
2022/05/30 11:52:18;;;;;;;2.50;0.63;;;16.30;99.90;;;;;;5089201;28;20118;-79
2022/05/30 11:55:12;;;;;;;1.00;0.52;;;16.60;99.90;;;;;;5020727;28;20370;-78
2022/05/30 11:57:55;;;;;;;2.10;0.50;;;16.30;99.90;;;;;;5012989;28;20137;-75
2022/05/30 12:00:41;;;;;;;2.30;0.60;;;16.30;99.90;;;;;;5024684;28;20469;-74
2022/05/30 12:03:25;;;;;;;1.50;0.40;;;16.00;99.90;;;;;;5036752;28;20034;-79
2022/05/30 12:06:15;;;;;;;1.00;0.40;;;15.60;99.90;;;;;;5012246;28;20041;-81
2022/05/30 12:09:01;;;;;;;1.65;0.70;;;14.70;99.90;;;;;;5030885;28;20087;-81
2022/05/30 12:11:56;;;;;;;2.05;0.90;;;14.20;99.90;;;;;;5029380;28;20485;-81
2022/05/30 12:14:37;;;;;;;2.60;0.95;;;13.50;99.90;;;;;;5001876;28;20141;-82
2022/05/30 12:17:19;;;;;;;2.50;0.93;;;13.20;99.90;;;;;;5008060;28;20144;-83
2022/05/30 12:25:38;;;;;;;4.22;0.95;;;13.10;99.90;;;;;;4990336;28;19917;-81
2022/05/30 12:28:06;;;;;;;3.38;0.77;;;13.30;99.90;;;;;;4988120;28;20520;-80
2022/05/30 12:30:41;;;;;;;2.40;0.85;;;13.30;99.90;;;;;;5006649;28;20050;-80
2022/05/30 12:33:25;;;;;;;;;;;13.40;99.90;;;;;;4993154;28;20445;-82
2022/05/30 12:36:11;;;;;;;4.47;1.10;;;13.20;99.90;;;;;;5003584;28;20287;-83
2022/05/30 12:38:56;;;;;;;1.92;1.13;;;13.60;99.90;;;;;;4990920;28;20421;-83
2022/05/30 12:41:34;;;;;;;3.40;1.15;;;13.80;99.90;;;;;;5006349;28;20034;-82
2022/05/30 12:44:00;;;;;;;0.75;0.60;;;14.30;99.90;;;;;;5003167;28;20118;-83
2022/05/30 12:46:28;;;;;;;1.67;0.93;;;14.60;99.90;;;;;;4988929;28;20058;-82
2022/05/30 12:49:02;;;;;;;1.48;0.60;;;14.60;99.90;;;;;;5012055;28;20061;-81
2022/05/30 12:51:40;;;;;;;2.00;0.70;;;14.50;99.90;;;;;;5051234;28;20048;-85
2022/05/30 12:54:05;;;;;;;1.90;0.90;;;14.40;99.90;;;;;;5058078;28;20051;-80
2022/05/30 12:56:40;;;;;;;2.83;0.77;;;14.20;99.90;;;;;;5062986;28;20371;-83
2022/05/30 12:59:06;;;;;;;;;;;14.50;99.90;;;;;;5070546;28;20783;-82
2022/05/30 13:01:44;;;;;;;3.03;0.50;;;14.30;99.90;;;;;;5055150;28;19928;-83
2022/05/30 13:04:15;;;;;;;1.02;0.40;;;14.40;99.90;;;;;;5052985;28;20131;-82
2022/05/30 13:07:06;;;;;;;2.38;0.55;;;14.10;99.90;;;;;;5053252;28;20156;-83
2022/05/30 13:09:38;;;;;;;0.93;0.40;;;13.90;99.90;;;;;;5065724;28;20083;-85
2022/05/30 13:12:17;;;;;;;1.80;0.50;;;13.50;99.90;;;;;;5076951;28;20131;-80
2022/05/30 13:14:49;;;;;;;2.83;0.60;;;13.40;99.90;;;;;;5057943;28;20096;-81
2022/05/30 13:17:30;;;;;;;1.70;0.63;;;13.30;99.90;;;;;;5064819;28;20036;-82
2022/05/30 13:23:56;;;;;;;2.75;0.70;;;13.10;99.90;;;;;;5092466;28;20082;-82
2022/05/30 13:26:21;;;;;;;1.42;0.50;;;13.00;99.90;;;;;;5093676;28;20044;-81
2022/05/30 13:28:50;;;;;;;1.65;0.70;;;12.90;99.90;;;;;;5059085;28;20374;-80
2022/05/30 13:31:16;;;;;;;1.38;0.63;;;12.80;99.90;;;;;;5057232;28;20122;-81
2022/05/30 13:33:52;;;;;;;1.63;0.70;;;12.90;99.90;;;;;;5074566;28;20080;-80
2022/05/30 13:36:30;;;;;;;3.17;1.08;;;13.10;99.90;;;;;;5058237;28;20055;-83
2022/05/30 13:38:57;;;;;;;3.42;1.15;;;13.30;99.90;;;;;;5079342;28;20059;-81
2022/05/30 13:41:27;;;;;;;3.00;0.82;;;13.40;99.90;;;;;;5048671;28;20411;-83
2022/05/30 13:43:55;;;;;;;4.93;0.77;;;13.70;99.90;;;;;;5061936;28;20090;-81
2022/05/30 13:46:23;;;;;;;7.57;2.50;;;13.90;99.90;;;;;;5076186;28;20032;-82
2022/05/30 13:48:52;;;;;;;3.45;0.80;;;14.60;99.90;;;;;;5081009;28;20123;-80
2022/05/30 13:51:42;;;;;;;4.05;0.88;;;15.40;99.90;;;;;;5069319;28;20139;-81
2022/05/30 13:54:10;;;;;;;2.47;0.70;;;15.70;99.90;;;;;;5076478;28;20105;-79
2022/05/30 13:56:45;;;;;;;4.32;1.00;;;16.40;99.90;;;;;;5066733;28;20076;-80
2022/05/30 13:59:31;;;;;;;2.42;0.77;;;16.60;99.90;;;;;;5062660;28;20052;-80